Time;durP1;ratioP1;P1;durP2;ratioP2;P2;SDS_P1;SDS_P2;PMS_P1;PMS_P2;Temp;Humidity;BMP_temperature;BMP_pressure;BME280_temperature;BME280_humidity;BME280_pressure;Samples;Min_cycle;Max_cycle;Signal;HPM_P1;HPM_P2
2022/10/13 00:02:01;;;;;;;23.00;13.17;;;;;;;;;;4958931;28;20085;-63
2022/10/13 00:04:27;;;;;;;32.57;14.53;;;;;;;;;;4969384;28;20525;-63
2022/10/13 00:06:53;;;;;;;23.07;14.40;;;;;;;;;;4970968;28;20051;-63
2022/10/13 00:09:19;;;;;;;26.87;13.57;;;;;;;;;;4952492;29;20043;-63
2022/10/13 00:11:45;;;;;;;27.60;14.23;;;;;;;;;;4952073;29;20409;-63
2022/10/13 00:14:11;;;;;;;30.37;14.37;;;;;;;;;;4952059;29;20125;-63
2022/10/13 00:16:37;;;;;;;26.90;13.30;;;;;;;;;;4963163;28;20047;-63
2022/10/13 00:19:03;;;;;;;30.93;14.53;;;;;;;;;;4971118;28;20106;-63
2022/10/13 00:21:29;;;;;;;26.27;14.50;;;;;;;;;;4971341;28;20050;-63
2022/10/13 00:23:55;;;;;;;27.27;15.47;;;;;;;;;;4971197;28;20047;-63
2022/10/13 00:26:23;;;;;;;35.87;15.17;;;;;;;;;;4971508;28;20571;-63
2022/10/13 00:28:49;;;;;;;29.47;14.20;;;;;;;;;;4970553;28;20424;-63
2022/10/13 00:31:19;;;;;;;32.80;15.23;;;;;;;;;;4970847;28;20101;-63
2022/10/13 00:33:46;;;;;;;28.23;13.63;;;;;;;;;;4970830;28;20055;-63
2022/10/13 00:36:13;;;;;;;24.27;14.17;;;;;;;;;;4970970;28;20128;-63
2022/10/13 00:38:39;;;;;;;28.80;14.37;;;;;;;;;;4970868;28;20420;-63
2022/10/13 00:41:05;;;;;;;24.50;13.37;;;;;;;;;;4970607;28;20077;-63
2022/10/13 00:43:46;;;;;;;28.13;15.23;;;;;;;;;;4970800;28;20054;-63
2022/10/13 00:46:12;;;;;;;29.00;13.37;;;;;;;;;;4969377;28;20042;-63
2022/10/13 00:48:39;;;;;;;23.63;13.43;;;;;;;;;;4970790;28;20444;-63
2022/10/13 00:51:05;;;;;;;32.57;14.57;;;;;;;;;;4970815;28;20758;-63
2022/10/13 00:53:33;;;;;;;31.37;14.63;;;;;;;;;;4969930;28;20047;-63
2022/10/13 00:56:00;;;;;;;27.17;14.23;;;;;;;;;;4970805;28;20043;-63
2022/10/13 00:58:30;;;;;;;26.93;13.83;;;;;;;;;;4970528;28;20420;-63
2022/10/13 01:00:56;;;;;;;25.77;14.17;;;;;;;;;;4970402;28;20412;-63
2022/10/13 01:03:22;;;;;;;25.50;14.90;;;;;;;;;;4970502;28;20042;-63
2022/10/13 01:05:49;;;;;;;28.67;14.80;;;;;;;;;;4970109;28;20053;-63
2022/10/13 01:08:16;;;;;;;29.47;14.63;;;;;;;;;;4971013;28;20043;-63
2022/10/13 01:10:54;;;;;;;24.43;13.53;;;;;;;;;;4969736;28;20058;-63
2022/10/13 01:13:27;;;;;;;27.77;13.80;;;;;;;;;;4971295;28;20853;-63
2022/10/13 01:15:53;;;;;;;;;;;;;;;;;;4969231;28;20411;-63
2022/10/13 01:18:29;;;;;;;24.43;14.33;;;;;;;;;;4970804;28;19922;-63
2022/10/13 01:20:55;;;;;;;33.43;16.37;;;;;;;;;;4970886;28;20081;-63
2022/10/13 01:23:27;;;;;;;25.73;14.30;;;;;;;;;;4970452;28;20050;-63
2022/10/13 01:26:12;;;;;;;32.10;15.27;;;;;;;;;;4970153;28;20051;-63
2022/10/13 01:29:04;;;;;;;31.37;14.67;;;;;;;;;;4970122;28;20050;-63
2022/10/13 01:31:37;;;;;;;28.00;15.37;;;;;;;;;;4968398;28;20571;-63
2022/10/13 01:34:08;;;;;;;28.48;14.98;;;;;;;;;;4970321;28;20057;-63
2022/10/13 01:36:43;;;;;;;31.90;14.90;;;;;;;;;;4969765;28;20123;-63
2022/10/13 01:39:17;;;;;;;26.53;13.87;;;;;;;;;;4970390;28;20046;-63
2022/10/13 01:41:46;;;;;;;25.47;14.70;;;;;;;;;;4970009;28;20479;-63
2022/10/13 01:44:15;;;;;;;31.47;14.17;;;;;;;;;;4970204;28;20071;-63
2022/10/13 01:46:42;;;;;;;26.00;13.83;;;;;;;;;;4970030;28;20057;-63
2022/10/13 01:49:13;;;;;;;28.17;15.00;;;;;;;;;;4970272;28;20054;-63
2022/10/13 01:51:40;;;;;;;26.77;13.33;;;;;;;;;;4970399;28;20050;-63
2022/10/13 01:54:06;;;;;;;27.03;14.83;;;;;;;;;;4969750;28;20053;-63
2022/10/13 01:56:32;;;;;;;33.57;16.57;;;;;;;;;;4970048;28;20043;-63
2022/10/13 01:59:01;;;;;;;27.57;14.80;;;;;;;;;;4970810;28;20042;-63
2022/10/13 02:01:32;;;;;;;25.90;15.57;;;;;;;;;;4970973;28;20690;-63
2022/10/13 02:04:16;;;;;;;25.57;14.23;;;;;;;;;;4970857;28;20050;-62
2022/10/13 02:07:07;;;;;;;28.20;15.23;;;;;;;;;;4975076;28;20081;-62
2022/10/13 02:09:35;;;;;;;28.67;15.00;;;;;;;;;;4974570;28;20486;-62
2022/10/13 02:12:05;;;;;;;27.83;14.03;;;;;;;;;;4974815;28;20054;-62
2022/10/13 02:14:33;;;;;;;26.53;14.67;;;;;;;;;;4974618;28;20047;-61
2022/10/13 02:17:00;;;;;;;23.43;14.60;;;;;;;;;;4974877;28;20047;-62
2022/10/13 02:19:27;;;;;;;32.57;15.27;;;;;;;;;;4974514;28;20039;-62
2022/10/13 02:21:53;;;;;;;30.57;15.27;;;;;;;;;;4974721;28;20138;-62
2022/10/13 02:24:19;;;;;;;22.90;14.07;;;;;;;;;;4974331;28;20050;-62
2022/10/13 02:26:45;;;;;;;31.43;15.47;;;;;;;;;;4974155;28;20639;-62
2022/10/13 02:29:13;;;;;;;27.63;14.70;;;;;;;;;;4974434;28;20054;-62
2022/10/13 02:31:40;;;;;;;26.80;15.63;;;;;;;;;;4973542;28;20058;-62
2022/10/13 02:34:06;;;;;;;25.70;14.60;;;;;;;;;;4973269;28;20117;-62
2022/10/13 02:36:32;;;;;;;32.10;14.57;;;;;;;;;;4972544;28;20046;-62
2022/10/13 02:38:59;;;;;;;29.73;14.20;;;;;;;;;;4973173;28;20046;-62
2022/10/13 02:41:25;;;;;;;29.40;13.90;;;;;;;;;;4973518;28;20047;-62
2022/10/13 02:43:51;;;;;;;23.23;15.07;;;;;;;;;;4972811;28;20058;-62
2022/10/13 02:46:17;;;;;;;28.33;13.83;;;;;;;;;;4973032;28;20043;-63
2022/10/13 02:48:43;;;;;;;23.67;14.00;;;;;;;;;;4972299;28;20051;-63
2022/10/13 02:51:09;;;;;;;34.20;15.00;;;;;;;;;;4972755;28;20055;-62
2022/10/13 02:53:35;;;;;;;26.60;14.57;;;;;;;;;;4972589;28;20093;-62
2022/10/13 02:56:01;;;;;;;30.20;14.77;;;;;;;;;;4973028;28;20043;-62
2022/10/13 02:58:27;;;;;;;28.30;14.50;;;;;;;;;;4972850;28;20559;-62
2022/10/13 03:00:53;;;;;;;25.77;13.97;;;;;;;;;;4972577;28;20046;-62
2022/10/13 03:03:19;;;;;;;27.60;14.77;;;;;;;;;;4972680;28;20050;-62
2022/10/13 03:05:45;;;;;;;26.23;14.77;;;;;;;;;;4972522;28;20054;-62
2022/10/13 03:08:11;;;;;;;26.80;15.40;;;;;;;;;;4972376;28;20047;-62
2022/10/13 03:10:37;;;;;;;30.80;14.17;;;;;;;;;;4972661;28;20047;-63
2022/10/13 03:13:03;;;;;;;32.23;15.27;;;;;;;;;;4972517;28;20046;-62
2022/10/13 03:15:29;;;;;;;35.87;17.10;;;;;;;;;;4971755;28;20051;-62
2022/10/13 03:17:55;;;;;;;27.17;14.83;;;;;;;;;;4971630;28;20053;-62
2022/10/13 03:20:21;;;;;;;32.47;15.57;;;;;;;;;;4972484;28;20042;-62
2022/10/13 03:22:47;;;;;;;37.30;17.07;;;;;;;;;;4972508;28;20042;-62
2022/10/13 03:25:13;;;;;;;33.97;16.77;;;;;;;;;;4972111;28;20117;-62
2022/10/13 03:27:39;;;;;;;33.13;16.83;;;;;;;;;;4971885;28;20197;-62
2022/10/13 03:30:05;;;;;;;35.97;18.83;;;;;;;;;;4972245;28;20085;-62
2022/10/13 03:32:31;;;;;;;34.20;18.10;;;;;;;;;;4972186;28;20081;-62
2022/10/13 03:34:57;;;;;;;41.03;21.07;;;;;;;;;;4972029;28;20487;-63
2022/10/13 03:37:23;;;;;;;38.10;19.83;;;;;;;;;;4971312;28;20521;-62
2022/10/13 03:39:49;;;;;;;39.13;20.57;;;;;;;;;;4972145;28;20134;-63
2022/10/13 03:42:16;;;;;;;42.97;22.53;;;;;;;;;;4972062;28;20098;-63
2022/10/13 03:44:42;;;;;;;46.10;21.87;;;;;;;;;;4970302;28;20057;-64
2022/10/13 03:47:08;;;;;;;43.03;21.33;;;;;;;;;;4971754;28;20053;-65
2022/10/13 03:49:34;;;;;;;49.60;23.53;;;;;;;;;;4971999;28;20043;-65
2022/10/13 03:52:00;;;;;;;41.37;23.00;;;;;;;;;;4971279;28;20058;-64
2022/10/13 03:54:26;;;;;;;42.10;22.57;;;;;;;;;;4971445;28;20054;-65
2022/10/13 03:56:52;;;;;;;50.73;24.67;;;;;;;;;;4970661;28;20457;-65
2022/10/13 03:59:18;;;;;;;53.73;24.67;;;;;;;;;;4971961;28;20501;-64
2022/10/13 04:01:45;;;;;;;57.10;26.73;;;;;;;;;;4970981;28;20038;-64
2022/10/13 04:04:12;;;;;;;60.63;25.17;;;;;;;;;;4971859;28;20078;-64
2022/10/13 04:06:38;;;;;;;63.70;27.87;;;;;;;;;;4971660;28;20061;-64
2022/10/13 04:09:04;;;;;;;68.77;29.30;;;;;;;;;;4971892;28;20121;-65
2022/10/13 04:11:30;;;;;;;55.63;26.53;;;;;;;;;;4971876;28;20055;-64
2022/10/13 04:13:57;;;;;;;87.87;33.33;;;;;;;;;;4953928;28;20055;-65
2022/10/13 04:16:25;;;;;;;62.07;29.17;;;;;;;;;;4971452;28;20066;-64
2022/10/13 04:18:52;;;;;;;70.77;30.37;;;;;;;;;;4971475;28;20457;-64
2022/10/13 04:21:18;;;;;;;74.97;30.60;;;;;;;;;;4971114;28;20220;-64
2022/10/13 04:23:44;;;;;;;68.50;29.23;;;;;;;;;;4971465;28;20497;-65
2022/10/13 04:26:17;;;;;;;60.27;28.87;;;;;;;;;;4971479;28;20046;-64
2022/10/13 04:28:44;;;;;;;76.75;30.70;;;;;;;;;;4970942;28;20453;-65
2022/10/13 04:31:10;;;;;;;68.43;31.90;;;;;;;;;;4970725;28;20062;-64
2022/10/13 04:33:36;;;;;;;59.43;28.43;;;;;;;;;;4971281;28;20050;-64
2022/10/13 04:36:09;;;;;;;97.87;35.50;;;;;;;;;;4970496;28;20047;-65
2022/10/13 04:38:35;;;;;;;61.08;29.30;;;;;;;;;;4971125;28;20089;-64
2022/10/13 04:41:02;;;;;;;87.03;32.90;;;;;;;;;;4970436;28;20045;-65
2022/10/13 04:43:28;;;;;;;82.33;33.63;;;;;;;;;;4970873;28;20094;-64
2022/10/13 04:45:59;;;;;;;79.77;33.70;;;;;;;;;;4968832;28;20058;-64
2022/10/13 04:48:25;;;;;;;58.20;28.20;;;;;;;;;;4970752;28;20050;-65
2022/10/13 04:51:00;;;;;;;52.53;26.13;;;;;;;;;;4970543;28;20531;-64
2022/10/13 04:53:28;;;;;;;59.13;27.47;;;;;;;;;;4970498;28;20070;-64
2022/10/13 04:55:55;;;;;;;68.73;26.97;;;;;;;;;;4968811;28;20073;-65
2022/10/13 04:58:21;;;;;;;68.17;30.07;;;;;;;;;;4968075;28;20058;-65
2022/10/13 05:00:47;;;;;;;56.00;26.03;;;;;;;;;;4968456;28;20055;-65
2022/10/13 05:03:13;;;;;;;51.63;25.93;;;;;;;;;;4968789;28;20418;-64
2022/10/13 05:05:39;;;;;;;57.40;26.37;;;;;;;;;;4967838;28;20413;-65
2022/10/13 05:08:05;;;;;;;55.53;26.30;;;;;;;;;;4969519;28;20444;-65
2022/10/13 05:10:31;;;;;;;46.40;24.67;;;;;;;;;;4969588;28;20050;-65
2022/10/13 05:12:57;;;;;;;78.90;32.50;;;;;;;;;;4969860;28;20046;-65
2022/10/13 05:15:23;;;;;;;121.30;41.30;;;;;;;;;;4970119;28;20130;-65
2022/10/13 05:17:49;;;;;;;80.73;33.43;;;;;;;;;;4970480;28;20837;-64
2022/10/13 05:20:16;;;;;;;117.97;39.27;;;;;;;;;;4970211;28;20464;-65
2022/10/13 05:22:42;;;;;;;57.47;27.90;;;;;;;;;;4969873;28;20055;-64
2022/10/13 05:25:08;;;;;;;82.87;33.50;;;;;;;;;;4969077;28;20166;-65
2022/10/13 05:27:34;;;;;;;57.20;26.87;;;;;;;;;;4970154;28;20043;-65
2022/10/13 05:30:01;;;;;;;53.20;26.30;;;;;;;;;;4964081;28;20094;-65
2022/10/13 05:32:27;;;;;;;65.37;31.07;;;;;;;;;;4962247;28;20402;-64
2022/10/13 05:34:53;;;;;;;84.23;32.10;;;;;;;;;;4967984;28;20488;-65
2022/10/13 05:37:21;;;;;;;70.83;31.43;;;;;;;;;;4950382;29;20462;-65
2022/10/13 05:39:47;;;;;;;68.47;29.17;;;;;;;;;;4948897;29;20087;-65
2022/10/13 05:42:13;;;;;;;51.03;24.57;;;;;;;;;;4950176;29;20047;-65
2022/10/13 05:44:39;;;;;;;65.10;29.33;;;;;;;;;;4950622;29;20398;-65
2022/10/13 05:47:05;;;;;;;55.07;25.67;;;;;;;;;;4952955;28;20421;-65
2022/10/13 05:49:31;;;;;;;52.97;25.73;;;;;;;;;;4969820;28;20061;-65
2022/10/13 05:52:00;;;;;;;53.03;27.23;;;;;;;;;;4969935;28;20058;-65
2022/10/13 05:54:29;;;;;;;69.33;30.90;;;;;;;;;;4969382;28;20047;-65
2022/10/13 05:57:01;;;;;;;57.53;26.00;;;;;;;;;;4969061;28;20047;-65
2022/10/13 05:59:28;;;;;;;62.30;29.20;;;;;;;;;;4969884;28;20043;-65
2022/10/13 06:01:54;;;;;;;73.63;31.40;;;;;;;;;;4969711;28;20054;-65
2022/10/13 06:04:22;;;;;;;64.30;29.67;;;;;;;;;;4969384;28;20046;-65
2022/10/13 06:06:49;;;;;;;51.57;25.83;;;;;;;;;;4969727;28;20043;-65
2022/10/13 06:09:15;;;;;;;63.57;28.73;;;;;;;;;;4969500;28;20043;-65
2022/10/13 06:11:41;;;;;;;55.97;24.77;;;;;;;;;;4969923;28;20065;-65
2022/10/13 06:14:07;;;;;;;69.73;29.47;;;;;;;;;;4968446;28;20051;-65
2022/10/13 06:16:35;;;;;;;56.27;28.13;;;;;;;;;;4968710;28;20109;-65
2022/10/13 06:19:01;;;;;;;97.73;36.07;;;;;;;;;;4969828;28;20112;-65
2022/10/13 06:21:27;;;;;;;71.30;30.90;;;;;;;;;;4968046;28;20053;-65
2022/10/13 06:23:53;;;;;;;60.83;29.17;;;;;;;;;;4968769;28;20050;-65
2022/10/13 06:26:19;;;;;;;62.17;28.20;;;;;;;;;;4968866;28;20154;-65
2022/10/13 06:28:45;;;;;;;69.47;30.13;;;;;;;;;;4969272;28;20509;-65
2022/10/13 06:31:13;;;;;;;58.23;28.93;;;;;;;;;;4968567;28;20094;-65
2022/10/13 06:33:39;;;;;;;50.90;26.37;;;;;;;;;;4969177;28;20615;-65
2022/10/13 06:36:05;;;;;;;74.53;31.43;;;;;;;;;;4967885;28;20042;-65
2022/10/13 06:38:32;;;;;;;59.27;28.47;;;;;;;;;;4968482;28;20046;-65
2022/10/13 06:40:59;;;;;;;63.97;28.93;;;;;;;;;;4968993;28;20043;-65
2022/10/13 06:43:25;;;;;;;64.80;29.47;;;;;;;;;;4968182;28;20047;-65
2022/10/13 06:45:51;;;;;;;60.37;28.70;;;;;;;;;;4967372;28;20051;-65
2022/10/13 06:48:17;;;;;;;61.30;31.53;;;;;;;;;;4968859;28;20054;-65
2022/10/13 06:50:43;;;;;;;67.17;31.30;;;;;;;;;;4963662;28;20062;-65
2022/10/13 06:53:09;;;;;;;63.73;30.23;;;;;;;;;;4980105;28;20043;-65
2022/10/13 06:55:35;;;;;;;54.90;27.30;;;;;;;;;;4969220;28;20082;-65
2022/10/13 06:58:01;;;;;;;55.17;27.93;;;;;;;;;;4969551;28;20497;-65
2022/10/13 07:00:27;;;;;;;47.13;25.40;;;;;;;;;;4970739;28;20093;-65
2022/10/13 07:02:53;;;;;;;56.13;28.57;;;;;;;;;;4965098;28;20047;-65
2022/10/13 07:05:19;;;;;;;51.83;27.50;;;;;;;;;;4971885;28;20054;-65
2022/10/13 07:07:45;;;;;;;50.97;24.57;;;;;;;;;;4971393;28;20117;-65
2022/10/13 07:10:11;;;;;;;52.50;26.00;;;;;;;;;;4971844;28;20050;-65
2022/10/13 07:12:37;;;;;;;44.40;25.40;;;;;;;;;;4972300;28;20049;-65
2022/10/13 07:15:04;;;;;;;52.43;25.70;;;;;;;;;;4972095;28;20384;-65
2022/10/13 07:17:30;;;;;;;48.53;24.60;;;;;;;;;;4971785;28;20586;-65
2022/10/13 07:19:56;;;;;;;47.77;24.73;;;;;;;;;;4972128;28;20091;-65
2022/10/13 07:22:22;;;;;;;50.67;26.37;;;;;;;;;;4970941;28;20082;-65
2022/10/13 07:24:48;;;;;;;51.90;24.80;;;;;;;;;;4972075;28;20123;-65
2022/10/13 07:27:14;;;;;;;54.97;26.23;;;;;;;;;;4971651;28;20154;-65
2022/10/13 07:29:40;;;;;;;53.07;27.07;;;;;;;;;;4971586;28;20062;-65
2022/10/13 07:32:06;;;;;;;41.10;23.20;;;;;;;;;;4971851;28;20551;-65
2022/10/13 07:34:32;;;;;;;48.63;25.87;;;;;;;;;;4971726;28;20420;-65
2022/10/13 07:36:58;;;;;;;42.47;24.63;;;;;;;;;;4953781;28;20051;-65
2022/10/13 07:39:24;;;;;;;46.73;24.60;;;;;;;;;;4951732;29;20055;-65
2022/10/13 07:41:50;;;;;;;69.13;34.40;;;;;;;;;;4952915;28;20416;-65
2022/10/13 07:44:16;;;;;;;56.97;25.77;;;;;;;;;;4956761;28;20131;-65
2022/10/13 07:46:42;;;;;;;49.50;24.93;;;;;;;;;;4970633;28;20051;-65
2022/10/13 07:49:08;;;;;;;57.33;27.57;;;;;;;;;;4960310;28;20047;-65
2022/10/13 07:51:34;;;;;;;62.53;28.80;;;;;;;;;;4969215;28;20097;-65
2022/10/13 07:54:00;;;;;;;74.37;30.70;;;;;;;;;;4953116;28;20046;-65
2022/10/13 07:56:26;;;;;;;55.43;25.57;;;;;;;;;;4958794;28;20058;-65
2022/10/13 07:58:52;;;;;;;52.00;26.40;;;;;;;;;;4956251;28;20564;-65
2022/10/13 08:01:18;;;;;;;56.53;27.77;;;;;;;;;;4970372;28;20417;-65
2022/10/13 08:03:45;;;;;;;53.83;26.30;;;;;;;;;;4956951;28;20047;-65
2022/10/13 08:06:11;;;;;;;60.67;29.43;;;;;;;;;;4951883;29;20047;-65
2022/10/13 08:08:39;;;;;;;45.47;24.60;;;;;;;;;;4968255;28;20054;-65
2022/10/13 08:11:06;;;;;;;58.50;27.87;;;;;;;;;;4971050;28;20051;-65
2022/10/13 08:13:32;;;;;;;54.23;27.80;;;;;;;;;;4970673;28;20054;-64
2022/10/13 08:16:02;;;;;;;51.03;25.97;;;;;;;;;;4970057;28;20408;-65
2022/10/13 08:18:28;;;;;;;50.20;24.90;;;;;;;;;;4969419;28;20074;-64
2022/10/13 08:20:55;;;;;;;46.57;24.37;;;;;;;;;;4970413;28;20125;-65
2022/10/13 08:23:21;;;;;;;38.90;21.87;;;;;;;;;;4969811;28;20477;-65
2022/10/13 08:25:47;;;;;;;42.37;22.20;;;;;;;;;;4970580;28;20158;-65
2022/10/13 08:28:17;;;;;;;42.47;21.53;;;;;;;;;;4970664;28;20055;-64
2022/10/13 08:30:44;;;;;;;39.20;22.63;;;;;;;;;;4969927;28;20054;-65
2022/10/13 08:33:10;;;;;;;37.83;22.40;;;;;;;;;;4970087;28;20046;-65
2022/10/13 08:35:36;;;;;;;37.53;19.93;;;;;;;;;;4970698;28;20059;-64
2022/10/13 08:38:02;;;;;;;43.97;20.87;;;;;;;;;;4969536;28;20101;-65
2022/10/13 08:40:28;;;;;;;39.27;20.07;;;;;;;;;;4969427;28;20583;-64
2022/10/13 08:42:54;;;;;;;47.50;24.53;;;;;;;;;;4969786;28;20088;-64
2022/10/13 08:45:30;;;;;;;37.10;21.63;;;;;;;;;;4970019;28;20498;-65
2022/10/13 08:47:59;;;;;;;42.90;21.97;;;;;;;;;;4970035;28;20043;-64
2022/10/13 08:50:27;;;;;;;42.40;22.73;;;;;;;;;;4969408;28;20089;-65
2022/10/13 08:52:56;;;;;;;42.60;22.17;;;;;;;;;;4968413;28;20039;-64
2022/10/13 08:55:25;;;;;;;37.43;21.77;;;;;;;;;;4969838;28;20046;-64
2022/10/13 08:57:52;;;;;;;36.47;21.87;;;;;;;;;;4969551;28;20047;-64
2022/10/13 09:00:18;;;;;;;45.40;22.13;;;;;;;;;;4969797;28;20043;-65
2022/10/13 09:02:44;;;;;;;42.23;20.80;;;;;;;;;;4969316;28;20039;-65
2022/10/13 09:05:18;;;;;;;42.73;22.37;;;;;;;;;;4969505;28;20528;-64
2022/10/13 09:07:45;;;;;;;48.97;25.33;;;;;;;;;;4955778;28;20047;-64
2022/10/13 09:10:13;;;;;;;47.03;25.63;;;;;;;;;;4969747;28;20094;-64
2022/10/13 09:12:39;;;;;;;50.67;26.10;;;;;;;;;;4969125;28;20058;-64
2022/10/13 09:15:09;;;;;;;41.67;22.23;;;;;;;;;;4968781;28;20046;-64
2022/10/13 09:17:36;;;;;;;42.17;23.73;;;;;;;;;;4969395;28;20077;-64
2022/10/13 09:20:02;;;;;;;51.67;24.90;;;;;;;;;;4969678;28;20118;-64
2022/10/13 09:22:33;;;;;;;46.70;24.93;;;;;;;;;;4968429;28;20501;-64
2022/10/13 09:25:10;;;;;;;57.43;26.10;;;;;;;;;;4970050;28;20062;-64
2022/10/13 09:28:03;;;;;;;46.47;24.83;;;;;;;;;;4970034;28;20072;-64
2022/10/13 09:30:42;;;;;;;51.67;23.87;;;;;;;;;;4965941;28;20050;-64
2022/10/13 09:33:11;;;;;;;44.93;24.43;;;;;;;;;;4968081;28;20058;-64
2022/10/13 09:35:39;;;;;;;53.17;24.77;;;;;;;;;;4967742;28;20065;-64
2022/10/13 09:38:06;;;;;;;51.27;25.30;;;;;;;;;;4969364;28;20126;-64
2022/10/13 09:40:33;;;;;;;50.80;25.33;;;;;;;;;;4969506;28;20042;-64
2022/10/13 09:43:00;;;;;;;45.00;25.57;;;;;;;;;;4967875;28;20190;-64
2022/10/13 09:45:28;;;;;;;46.20;26.23;;;;;;;;;;4968217;28;20134;-64
2022/10/13 09:47:56;;;;;;;61.17;28.07;;;;;;;;;;4969370;28;20061;-64
2022/10/13 09:50:24;;;;;;;43.37;25.50;;;;;;;;;;4968095;28;20489;-64
2022/10/13 09:52:51;;;;;;;49.40;25.90;;;;;;;;;;4969050;28;20045;-64
2022/10/13 09:55:27;;;;;;;51.20;25.47;;;;;;;;;;4967018;28;20177;-64
2022/10/13 09:57:55;;;;;;;44.70;25.67;;;;;;;;;;4969209;28;20058;-64
2022/10/13 10:00:21;;;;;;;62.80;29.47;;;;;;;;;;4969627;28;20038;-64
2022/10/13 10:02:50;;;;;;;46.07;26.40;;;;;;;;;;4968347;28;20047;-64
2022/10/13 10:05:27;;;;;;;47.83;25.40;;;;;;;;;;4969112;28;20051;-64
2022/10/13 10:07:56;;;;;;;41.23;25.87;;;;;;;;;;4967389;28;20055;-64
2022/10/13 10:10:27;;;;;;;47.67;26.43;;;;;;;;;;4969162;28;20439;-64
2022/10/13 10:12:53;;;;;;;54.70;29.40;;;;;;;;;;4968999;28;20046;-64
2022/10/13 10:15:23;;;;;;;45.73;27.27;;;;;;;;;;4969553;28;20082;-64
2022/10/13 10:17:55;;;;;;;54.60;29.40;;;;;;;;;;4968476;28;20122;-64
2022/10/13 10:20:36;;;;;;;52.40;30.63;;;;;;;;;;4968512;28;20047;-64
2022/10/13 10:23:10;;;;;;;43.40;27.57;;;;;;;;;;4968920;28;20047;-64
2022/10/13 10:25:42;;;;;;;53.90;28.40;;;;;;;;;;4969877;28;20054;-64
2022/10/13 10:28:11;;;;;;;56.67;28.67;;;;;;;;;;4972838;28;20050;-66
2022/10/13 10:30:42;;;;;;;47.67;28.27;;;;;;;;;;4972981;28;20153;-65
2022/10/13 10:33:13;;;;;;;55.30;29.90;;;;;;;;;;4971949;28;20047;-65
2022/10/13 10:35:44;;;;;;;54.13;29.93;;;;;;;;;;4972441;28;20098;-65
2022/10/13 10:38:10;;;;;;;94.23;40.00;;;;;;;;;;4973080;28;20081;-66
2022/10/13 10:40:45;;;;;;;67.13;33.43;;;;;;;;;;4972889;28;20101;-65
2022/10/13 10:43:20;;;;;;;84.20;38.50;;;;;;;;;;4968293;28;20513;-65
2022/10/13 10:45:48;;;;;;;99.23;40.50;;;;;;;;;;4970902;28;20057;-66
2022/10/13 10:48:17;;;;;;;54.43;32.53;;;;;;;;;;4972666;28;20050;-65
2022/10/13 10:50:43;;;;;;;62.87;33.67;;;;;;;;;;4972469;28;20108;-65
2022/10/13 10:53:15;;;;;;;61.57;33.27;;;;;;;;;;4972353;28;20054;-65
2022/10/13 10:55:50;;;;;;;63.05;34.05;;;;;;;;;;4971985;28;20086;-65
2022/10/13 10:58:25;;;;;;;62.70;34.17;;;;;;;;;;4972373;28;20058;-65
2022/10/13 11:00:55;;;;;;;61.83;34.87;;;;;;;;;;4972456;28;20054;-65
2022/10/13 11:03:25;;;;;;;67.87;35.40;;;;;;;;;;4969896;28;20457;-65
2022/10/13 11:05:57;;;;;;;63.97;33.83;;;;;;;;;;4972184;28;20057;-65
2022/10/13 11:08:39;;;;;;;70.37;33.27;;;;;;;;;;4972045;28;20046;-65
2022/10/13 11:11:27;;;;;;;56.03;31.13;;;;;;;;;;4971966;28;20568;-65
2022/10/13 11:14:01;;;;;;;53.60;32.53;;;;;;;;;;4971937;28;20058;-65
2022/10/13 11:16:46;;;;;;;61.93;32.77;;;;;;;;;;4971966;28;20134;-65
2022/10/13 11:19:27;;;;;;;44.60;28.27;;;;;;;;;;4971917;28;20050;-65
2022/10/13 11:21:53;;;;;;;52.70;31.93;;;;;;;;;;4971532;28;20051;-64
2022/10/13 11:24:35;;;;;;;65.80;34.60;;;;;;;;;;4961505;28;20043;-65
2022/10/13 11:27:07;;;;;;;59.77;35.17;;;;;;;;;;4971541;28;20051;-65
2022/10/13 11:29:45;;;;;;;53.93;31.37;;;;;;;;;;4971713;28;20448;-65
2022/10/13 11:32:40;;;;;;;65.63;33.97;;;;;;;;;;4973228;28;20057;-64
2022/10/13 11:35:08;;;;;;;60.57;33.17;;;;;;;;;;4972106;28;20046;-65
2022/10/13 11:37:34;;;;;;;54.93;30.97;;;;;;;;;;4970867;28;20105;-65
2022/10/13 11:40:21;;;;;;;60.73;32.97;;;;;;;;;;4971733;28;20042;-65
2022/10/13 11:42:47;;;;;;;66.23;34.23;;;;;;;;;;4968094;28;20058;-65
2022/10/13 11:45:19;;;;;;;57.87;35.23;;;;;;;;;;4971837;28;20046;-64
2022/10/13 11:48:00;;;;;;;63.50;34.63;;;;;;;;;;4970773;28;20055;-65
2022/10/13 11:50:32;;;;;;;56.43;32.43;;;;;;;;;;4971823;28;20047;-65
2022/10/13 11:53:15;;;;;;;60.17;33.90;;;;;;;;;;4953968;28;20055;-65
2022/10/13 11:55:54;;;;;;;69.30;35.63;;;;;;;;;;4971667;28;20047;-65
2022/10/13 11:58:25;;;;;;;61.20;34.83;;;;;;;;;;4986858;28;20038;-65
2022/10/13 12:00:52;;;;;;;81.80;36.87;;;;;;;;;;4990455;28;20047;-65
2022/10/13 12:03:37;;;;;;;64.33;35.03;;;;;;;;;;4989302;28;20878;-65
2022/10/13 12:06:25;;;;;;;73.50;36.57;;;;;;;;;;4957607;28;20050;-65
2022/10/13 12:08:51;;;;;;;58.17;33.97;;;;;;;;;;4957058;28;20039;-65
2022/10/13 12:11:28;;;;;;;89.23;40.57;;;;;;;;;;4959298;28;20370;-65
2022/10/13 12:13:54;;;;;;;66.70;36.03;;;;;;;;;;4971061;28;20137;-65
2022/10/13 12:16:21;;;;;;;60.70;33.83;;;;;;;;;;4969663;28;20294;-65
2022/10/13 12:18:47;;;;;;;57.53;32.90;;;;;;;;;;4970659;28;20039;-65
2022/10/13 12:21:19;;;;;;;54.87;33.03;;;;;;;;;;4970557;28;20046;-65
2022/10/13 12:23:45;;;;;;;64.17;33.83;;;;;;;;;;4970431;28;20674;-65
2022/10/13 12:26:22;;;;;;;56.80;31.50;;;;;;;;;;4971342;28;20051;-65
2022/10/13 12:28:50;;;;;;;46.73;30.10;;;;;;;;;;4970814;28;20047;-65
2022/10/13 12:31:17;;;;;;;77.87;36.13;;;;;;;;;;4970236;28;20058;-65
2022/10/13 12:33:43;;;;;;;51.20;30.83;;;;;;;;;;4970605;28;20042;-65
2022/10/13 12:36:19;;;;;;;74.93;36.77;;;;;;;;;;4970040;28;20092;-65
2022/10/13 12:38:48;;;;;;;65.43;33.93;;;;;;;;;;4969764;28;20066;-65
2022/10/13 12:41:17;;;;;;;43.73;28.50;;;;;;;;;;4968027;28;20046;-65
2022/10/13 12:43:43;;;;;;;44.57;29.70;;;;;;;;;;4969006;28;20058;-65
2022/10/13 12:46:09;;;;;;;44.63;27.80;;;;;;;;;;4964074;28;20043;-65
2022/10/13 12:48:37;;;;;;;42.23;28.17;;;;;;;;;;4966847;28;20047;-65
2022/10/13 12:51:17;;;;;;;42.40;27.80;;;;;;;;;;4950308;28;20058;-64
2022/10/13 12:53:44;;;;;;;54.03;29.03;;;;;;;;;;4951103;29;20397;-65
2022/10/13 12:56:37;;;;;;;50.60;30.43;;;;;;;;;;4966742;28;20039;-65
2022/10/13 12:59:03;;;;;;;64.23;33.30;;;;;;;;;;4963955;28;20046;-64
2022/10/13 13:01:33;;;;;;;50.30;31.03;;;;;;;;;;4969293;28;20621;-65
2022/10/13 13:04:22;;;;;;;51.40;29.70;;;;;;;;;;4969128;28;20180;-65
2022/10/13 13:06:53;;;;;;;52.53;31.10;;;;;;;;;;4967897;28;20070;-64
2022/10/13 13:09:19;;;;;;;53.10;31.17;;;;;;;;;;4949155;28;20058;-64
2022/10/13 13:11:46;;;;;;;65.57;32.57;;;;;;;;;;4950357;28;20098;-65
2022/10/13 13:14:41;;;;;;;57.47;31.57;;;;;;;;;;4951139;28;20134;-65
2022/10/13 13:17:20;;;;;;;113.40;35.30;;;;;;;;;;4942376;29;20085;-65
2022/10/13 13:19:50;;;;;;;44.97;24.33;;;;;;;;;;4950678;29;20493;-65
2022/10/13 13:22:16;;;;;;;28.50;16.93;;;;;;;;;;4950368;29;20501;-65
2022/10/13 13:24:42;;;;;;;45.93;21.13;;;;;;;;;;4949200;29;20051;-65
2022/10/13 13:27:17;;;;;;;108.53;31.77;;;;;;;;;;4949496;29;20047;-65
2022/10/13 13:29:44;;;;;;;44.53;18.03;;;;;;;;;;4948950;29;20055;-65
2022/10/13 13:32:13;;;;;;;97.57;26.10;;;;;;;;;;4967151;28;20046;-65
2022/10/13 13:34:40;;;;;;;33.73;14.90;;;;;;;;;;4969159;28;20125;-65
2022/10/13 13:37:08;;;;;;;41.10;14.67;;;;;;;;;;4969018;28;20053;-65
2022/10/13 13:39:34;;;;;;;87.40;24.60;;;;;;;;;;4969032;28;20046;-65
2022/10/13 13:42:00;;;;;;;24.03;12.30;;;;;;;;;;4968803;28;20386;-65
2022/10/13 13:44:26;;;;;;;40.20;15.50;;;;;;;;;;4969395;28;20051;-65
2022/10/13 13:46:52;;;;;;;36.30;15.10;;;;;;;;;;4954689;28;20153;-65
2022/10/13 13:49:18;;;;;;;51.10;16.70;;;;;;;;;;4969195;28;20043;-65
2022/10/13 13:51:44;;;;;;;68.13;19.10;;;;;;;;;;4968923;28;20046;-65
2022/10/13 13:54:10;;;;;;;29.13;13.27;;;;;;;;;;4969082;28;20412;-65
2022/10/13 13:56:37;;;;;;;67.67;21.87;;;;;;;;;;4969048;28;20042;-65
2022/10/13 13:59:03;;;;;;;77.17;22.60;;;;;;;;;;4968872;28;20137;-65
2022/10/13 14:01:31;;;;;;;69.97;20.80;;;;;;;;;;4972138;28;20055;-65
2022/10/13 14:03:57;;;;;;;64.73;21.07;;;;;;;;;;4973007;28;20043;-65
2022/10/13 14:06:23;;;;;;;102.43;28.03;;;;;;;;;;4973070;28;20047;-65
2022/10/13 14:08:49;;;;;;;80.13;21.23;;;;;;;;;;4971564;28;20050;-65
2022/10/13 14:11:15;;;;;;;69.07;22.00;;;;;;;;;;4972928;28;20077;-65
2022/10/13 14:13:41;;;;;;;85.47;23.63;;;;;;;;;;4972053;28;20074;-65
2022/10/13 14:16:11;;;;;;;76.73;23.87;;;;;;;;;;4972906;28;20498;-65
2022/10/13 14:18:37;;;;;;;37.03;15.87;;;;;;;;;;4972959;28;20054;-65
2022/10/13 14:21:07;;;;;;;37.67;16.57;;;;;;;;;;4972459;28;20035;-65
2022/10/13 14:23:33;;;;;;;46.33;18.27;;;;;;;;;;4972682;28;20047;-65
2022/10/13 14:25:59;;;;;;;44.77;17.90;;;;;;;;;;4973195;28;20047;-65